createdAt,value
2019-03-06T00:25:21.513Z,35.00
2019-03-06T00:55:25.316Z,33.87
2019-03-06T01:25:29.035Z,34.13
2019-03-06T01:55:33.125Z,34.83
2019-03-06T02:25:36.859Z,32.53
2019-03-06T02:55:40.577Z,30.77
2019-03-06T03:25:44.294Z,30.67
2019-03-06T03:55:47.962Z,30.43
2019-03-06T04:25:51.646Z,29.33
2019-03-06T04:55:55.246Z,26.67
2019-03-06T05:25:58.931Z,30.83
2019-03-06T05:56:02.692Z,28.50
2019-03-06T06:26:06.362Z,36.10
2019-03-06T06:56:29.398Z,44.53
2019-03-06T07:26:34.637Z,49.70
2019-03-06T07:56:41.220Z,58.37
2019-03-06T08:26:45.147Z,45.08
2019-03-06T08:56:56.113Z,41.90
2019-03-06T09:27:01.342Z,42.97
2019-03-06T09:57:12.625Z,43.40
2019-03-06T10:27:16.291Z,40.33
2019-03-06T10:57:19.895Z,41.77
2019-03-06T11:27:23.654Z,40.60
2019-03-06T11:57:27.349Z,41.77
2019-03-06T12:27:31.003Z,42.77
2019-03-06T12:57:34.591Z,41.50
2019-03-06T13:27:38.347Z,46.77
2019-03-06T13:57:44.328Z,41.70
2019-03-06T14:27:48.065Z,43.07
2019-03-06T14:57:51.840Z,41.20
2019-03-06T15:27:55.582Z,41.50
2019-03-06T15:57:59.346Z,40.73
2019-03-06T16:28:04.331Z,41.17
2019-03-06T16:58:08.077Z,40.67
2019-03-06T17:28:11.932Z,44.42
2019-03-06T17:58:15.748Z,40.00
2019-03-06T18:28:19.511Z,38.73
2019-03-06T18:58:23.155Z,37.97
2019-03-06T19:28:26.829Z,38.03
2019-03-06T19:58:31.646Z,40.60
2019-03-06T20:28:35.356Z,38.63
2019-03-06T20:58:39.053Z,40.70
2019-03-06T21:28:42.682Z,40.60
2019-03-06T21:58:46.270Z,42.37
2019-03-06T22:28:50.083Z,40.70
2019-03-06T22:58:53.706Z,40.97
2019-03-06T23:28:57.293Z,40.80
2019-03-06T23:59:00.987Z,38.90
